sensor_id;sensor_type;location;lat;lon;timestamp;P1;durP1;ratioP1;P2;durP2;ratioP2
75814;SDS011;64451;45.574;14.224;2023-05-07T00:00:19;6.80;;;4.10;;
75814;SDS011;64451;45.574;14.224;2023-05-07T00:02:19;12.98;;;4.45;;
75814;SDS011;64451;45.574;14.224;2023-05-07T00:04:20;8.20;;;4.22;;
75814;SDS011;64451;45.574;14.224;2023-05-07T00:06:20;8.98;;;5.03;;
75814;SDS011;64451;45.574;14.224;2023-05-07T00:08:24;6.60;;;3.80;;
75814;SDS011;64451;45.574;14.224;2023-05-07T00:10:27;7.93;;;4.25;;
75814;SDS011;64451;45.574;14.224;2023-05-07T00:12:27;7.55;;;3.95;;
75814;SDS011;64451;45.574;14.224;2023-05-07T00:14:31;7.45;;;3.88;;
75814;SDS011;64451;45.574;14.224;2023-05-07T00:16:37;8.00;;;4.78;;
75814;SDS011;64451;45.574;14.224;2023-05-07T00:18:40;7.95;;;3.95;;
75814;SDS011;64451;45.574;14.224;2023-05-07T00:20:40;9.85;;;4.25;;
75814;SDS011;64451;45.574;14.224;2023-05-07T00:22:47;7.70;;;3.70;;
75814;SDS011;64451;45.574;14.224;2023-05-07T00:24:50;7.75;;;4.32;;
75814;SDS011;64451;45.574;14.224;2023-05-07T00:26:53;8.68;;;3.90;;
75814;SDS011;64451;45.574;14.224;2023-05-07T00:28:56;8.70;;;4.68;;
75814;SDS011;64451;45.574;14.224;2023-05-07T00:30:56;7.43;;;3.92;;
75814;SDS011;64451;45.574;14.224;2023-05-07T00:37:15;6.78;;;3.80;;
75814;SDS011;64451;45.574;14.224;2023-05-07T00:39:24;8.10;;;4.30;;
75814;SDS011;64451;45.574;14.224;2023-05-07T00:41:30;6.10;;;3.53;;
75814;SDS011;64451;45.574;14.224;2023-05-07T00:43:31;5.90;;;3.50;;
75814;SDS011;64451;45.574;14.224;2023-05-07T00:45:32;7.63;;;3.92;;
75814;SDS011;64451;45.574;14.224;2023-05-07T00:47:36;8.02;;;4.03;;
75814;SDS011;64451;45.574;14.224;2023-05-07T00:49:43;5.93;;;3.08;;
75814;SDS011;64451;45.574;14.224;2023-05-07T00:51:46;7.53;;;3.88;;
75814;SDS011;64451;45.574;14.224;2023-05-07T00:53:46;7.32;;;3.85;;
75814;SDS011;64451;45.574;14.224;2023-05-07T00:55:50;6.88;;;3.58;;
75814;SDS011;64451;45.574;14.224;2023-05-07T00:57:53;6.85;;;3.55;;
75814;SDS011;64451;45.574;14.224;2023-05-07T00:59:54;6.70;;;3.75;;
75814;SDS011;64451;45.574;14.224;2023-05-07T01:02:03;6.50;;;3.78;;
75814;SDS011;64451;45.574;14.224;2023-05-07T01:04:06;5.30;;;3.05;;
75814;SDS011;64451;45.574;14.224;2023-05-07T01:06:07;6.57;;;3.50;;
75814;SDS011;64451;45.574;14.224;2023-05-07T01:08:12;6.55;;;3.70;;
75814;SDS011;64451;45.574;14.224;2023-05-07T01:10:16;9.57;;;4.00;;
75814;SDS011;64451;45.574;14.224;2023-05-07T01:12:27;12.02;;;4.15;;
75814;SDS011;64451;45.574;14.224;2023-05-07T01:14:38;7.30;;;3.83;;
75814;SDS011;64451;45.574;14.224;2023-05-07T01:16:39;11.88;;;4.10;;
75814;SDS011;64451;45.574;14.224;2023-05-07T01:18:46;8.70;;;4.40;;
75814;SDS011;64451;45.574;14.224;2023-05-07T01:20:52;7.53;;;3.92;;
75814;SDS011;64451;45.574;14.224;2023-05-07T01:22:55;7.05;;;3.90;;
75814;SDS011;64451;45.574;14.224;2023-05-07T01:25:07;12.77;;;3.38;;
75814;SDS011;64451;45.574;14.224;2023-05-07T01:27:15;7.15;;;3.70;;
75814;SDS011;64451;45.574;14.224;2023-05-07T01:29:21;7.22;;;3.78;;
75814;SDS011;64451;45.574;14.224;2023-05-07T01:31:25;7.57;;;3.67;;
75814;SDS011;64451;45.574;14.224;2023-05-07T01:33:40;8.77;;;4.32;;
75814;SDS011;64451;45.574;14.224;2023-05-07T01:35:45;13.50;;;4.03;;
75814;SDS011;64451;45.574;14.224;2023-05-07T01:37:55;6.72;;;3.75;;
75814;SDS011;64451;45.574;14.224;2023-05-07T01:39:56;8.77;;;4.30;;
75814;SDS011;64451;45.574;14.224;2023-05-07T01:42:06;7.28;;;3.63;;
75814;SDS011;64451;45.574;14.224;2023-05-07T01:44:16;6.43;;;3.70;;
75814;SDS011;64451;45.574;14.224;2023-05-07T01:46:18;6.82;;;3.00;;
75814;SDS011;64451;45.574;14.224;2023-05-07T01:48:28;8.25;;;4.28;;
75814;SDS011;64451;45.574;14.224;2023-05-07T01:50:32;8.98;;;3.88;;
75814;SDS011;64451;45.574;14.224;2023-05-07T01:52:42;6.30;;;3.13;;
75814;SDS011;64451;45.574;14.224;2023-05-07T01:54:43;5.90;;;3.38;;
75814;SDS011;64451;45.574;14.224;2023-05-07T01:56:46;6.78;;;3.78;;
75814;SDS011;64451;45.574;14.224;2023-05-07T01:59:04;7.13;;;3.60;;
75814;SDS011;64451;45.574;14.224;2023-05-07T02:01:10;6.70;;;3.63;;
75814;SDS011;64451;45.574;14.224;2023-05-07T02:03:11;6.80;;;3.95;;
75814;SDS011;64451;45.574;14.224;2023-05-07T02:14:10;8.48;;;4.15;;
75814;SDS011;64451;45.574;14.224;2023-05-07T02:28:58;6.63;;;3.47;;
75814;SDS011;64451;45.574;14.224;2023-05-07T02:31:16;7.38;;;3.83;;
75814;SDS011;64451;45.574;14.224;2023-05-07T02:33:16;8.50;;;3.63;;
75814;SDS011;64451;45.574;14.224;2023-05-07T02:35:17;10.23;;;4.15;;
75814;SDS011;64451;45.574;14.224;2023-05-07T02:37:26;8.10;;;3.88;;
75814;SDS011;64451;45.574;14.224;2023-05-07T02:39:57;10.95;;;4.45;;
75814;SDS011;64451;45.574;14.224;2023-05-07T02:42:10;6.30;;;3.30;;
75814;SDS011;64451;45.574;14.224;2023-05-07T02:44:19;15.00;;;4.32;;
75814;SDS011;64451;45.574;14.224;2023-05-07T02:46:19;5.53;;;3.20;;
75814;SDS011;64451;45.574;14.224;2023-05-07T02:48:26;7.28;;;3.42;;
75814;SDS011;64451;45.574;14.224;2023-05-07T02:50:41;7.78;;;4.10;;
75814;SDS011;64451;45.574;14.224;2023-05-07T02:52:47;9.25;;;4.00;;
75814;SDS011;64451;45.574;14.224;2023-05-07T02:59:24;6.07;;;3.17;;
75814;SDS011;64451;45.574;14.224;2023-05-07T03:02:05;6.13;;;3.45;;
75814;SDS011;64451;45.574;14.224;2023-05-07T03:04:20;7.47;;;3.83;;
75814;SDS011;64451;45.574;14.224;2023-05-07T03:06:33;12.00;;;3.85;;
75814;SDS011;64451;45.574;14.224;2023-05-07T03:10:54;12.82;;;4.10;;
75814;SDS011;64451;45.574;14.224;2023-05-07T03:15:14;16.70;;;4.10;;
75814;SDS011;64451;45.574;14.224;2023-05-07T03:17:23;12.15;;;3.38;;
75814;SDS011;64451;45.574;14.224;2023-05-07T03:19:27;11.43;;;3.20;;
75814;SDS011;64451;45.574;14.224;2023-05-07T03:21:34;9.35;;;3.67;;
75814;SDS011;64451;45.574;14.224;2023-05-07T03:23:52;10.45;;;4.38;;
75814;SDS011;64451;45.574;14.224;2023-05-07T03:28:11;8.52;;;3.45;;
75814;SDS011;64451;45.574;14.224;2023-05-07T03:30:17;10.70;;;3.55;;
75814;SDS011;64451;45.574;14.224;2023-05-07T03:32:32;7.18;;;3.55;;
75814;SDS011;64451;45.574;14.224;2023-05-07T03:46:03;9.13;;;3.45;;
75814;SDS011;64451;45.574;14.224;2023-05-07T03:50:21;6.70;;;3.42;;
75814;SDS011;64451;45.574;14.224;2023-05-07T03:52:24;7.45;;;3.25;;
75814;SDS011;64451;45.574;14.224;2023-05-07T03:54:34;9.25;;;3.58;;
75814;SDS011;64451;45.574;14.224;2023-05-07T03:56:38;7.03;;;3.90;;
75814;SDS011;64451;45.574;14.224;2023-05-07T04:01:09;7.38;;;3.47;;
75814;SDS011;64451;45.574;14.224;2023-05-07T04:03:16;7.50;;;4.00;;
75814;SDS011;64451;45.574;14.224;2023-05-07T04:08:08;7.72;;;3.08;;
75814;SDS011;64451;45.574;14.224;2023-05-07T04:12:43;6.93;;;3.28;;
75814;SDS011;64451;45.574;14.224;2023-05-07T04:17:12;17.33;;;4.05;;
75814;SDS011;64451;45.574;14.224;2023-05-07T04:19:32;6.93;;;3.72;;
75814;SDS011;64451;45.574;14.224;2023-05-07T04:21:48;6.20;;;3.45;;
75814;SDS011;64451;45.574;14.224;2023-05-07T04:24:07;15.32;;;3.80;;
75814;SDS011;64451;45.574;14.224;2023-05-07T04:26:10;9.77;;;3.65;;
75814;SDS011;64451;45.574;14.224;2023-05-07T04:28:19;8.25;;;4.35;;
75814;SDS011;64451;45.574;14.224;2023-05-07T04:30:57;11.05;;;4.80;;
75814;SDS011;64451;45.574;14.224;2023-05-07T04:32:57;25.35;;;13.52;;
75814;SDS011;64451;45.574;14.224;2023-05-07T04:35:13;14.65;;;7.97;;
75814;SDS011;64451;45.574;14.224;2023-05-07T04:37:17;8.43;;;4.47;;
75814;SDS011;64451;45.574;14.224;2023-05-07T04:39:36;11.65;;;4.47;;
75814;SDS011;64451;45.574;14.224;2023-05-07T04:41:51;6.40;;;3.65;;
75814;SDS011;64451;45.574;14.224;2023-05-07T04:44:06;8.27;;;3.78;;
75814;SDS011;64451;45.574;14.224;2023-05-07T04:46:12;9.73;;;3.90;;
75814;SDS011;64451;45.574;14.224;2023-05-07T04:48:22;7.65;;;4.07;;
75814;SDS011;64451;45.574;14.224;2023-05-07T04:50:23;10.63;;;5.05;;
75814;SDS011;64451;45.574;14.224;2023-05-07T04:58:53;9.53;;;5.07;;
75814;SDS011;64451;45.574;14.224;2023-05-07T05:05:13;11.40;;;5.57;;
75814;SDS011;64451;45.574;14.224;2023-05-07T05:07:14;15.32;;;5.63;;
75814;SDS011;64451;45.574;14.224;2023-05-07T05:09:14;16.67;;;6.18;;
75814;SDS011;64451;45.574;14.224;2023-05-07T05:11:27;20.98;;;5.78;;
75814;SDS011;64451;45.574;14.224;2023-05-07T05:13:28;10.65;;;6.05;;
75814;SDS011;64451;45.574;14.224;2023-05-07T05:15:29;11.23;;;6.22;;
75814;SDS011;64451;45.574;14.224;2023-05-07T05:17:40;9.77;;;6.00;;
75814;SDS011;64451;45.574;14.224;2023-05-07T05:19:40;9.95;;;5.53;;
75814;SDS011;64451;45.574;14.224;2023-05-07T05:21:41;13.52;;;9.90;;
75814;SDS011;64451;45.574;14.224;2023-05-07T05:23:50;10.07;;;5.03;;
75814;SDS011;64451;45.574;14.224;2023-05-07T05:35:36;10.52;;;5.07;;
75814;SDS011;64451;45.574;14.224;2023-05-07T05:37:39;9.85;;;4.63;;
75814;SDS011;64451;45.574;14.224;2023-05-07T05:39:39;9.05;;;4.95;;
75814;SDS011;64451;45.574;14.224;2023-05-07T05:44:29;6.33;;;4.23;;
75814;SDS011;64451;45.574;14.224;2023-05-07T05:46:35;9.02;;;4.63;;
75814;SDS011;64451;45.574;14.224;2023-05-07T05:48:39;7.82;;;4.55;;
75814;SDS011;64451;45.574;14.224;2023-05-07T05:50:39;9.10;;;4.78;;
75814;SDS011;64451;45.574;14.224;2023-05-07T05:53:14;9.30;;;4.68;;
75814;SDS011;64451;45.574;14.224;2023-05-07T05:55:28;12.30;;;6.00;;
75814;SDS011;64451;45.574;14.224;2023-05-07T05:57:28;10.23;;;5.68;;
75814;SDS011;64451;45.574;14.224;2023-05-07T05:59:45;10.00;;;6.85;;
75814;SDS011;64451;45.574;14.224;2023-05-07T06:01:47;15.02;;;6.88;;
75814;SDS011;64451;45.574;14.224;2023-05-07T06:04:06;10.50;;;6.05;;
75814;SDS011;64451;45.574;14.224;2023-05-07T06:06:06;9.60;;;5.60;;
75814;SDS011;64451;45.574;14.224;2023-05-07T06:08:13;10.77;;;5.50;;
75814;SDS011;64451;45.574;14.224;2023-05-07T06:10:16;8.60;;;5.78;;
75814;SDS011;64451;45.574;14.224;2023-05-07T06:12:16;10.80;;;6.65;;
75814;SDS011;64451;45.574;14.224;2023-05-07T06:17:28;9.38;;;5.03;;
75814;SDS011;64451;45.574;14.224;2023-05-07T06:19:28;9.40;;;5.30;;
75814;SDS011;64451;45.574;14.224;2023-05-07T06:26:14;9.77;;;5.03;;
75814;SDS011;64451;45.574;14.224;2023-05-07T06:28:18;7.35;;;4.85;;
75814;SDS011;64451;45.574;14.224;2023-05-07T06:30:21;7.35;;;4.63;;
75814;SDS011;64451;45.574;14.224;2023-05-07T06:32:24;8.73;;;4.80;;
75814;SDS011;64451;45.574;14.224;2023-05-07T06:34:43;9.00;;;4.72;;
75814;SDS011;64451;45.574;14.224;2023-05-07T06:36:56;9.27;;;5.40;;
75814;SDS011;64451;45.574;14.224;2023-05-07T06:41:14;7.97;;;4.78;;
75814;SDS011;64451;45.574;14.224;2023-05-07T06:43:27;8.18;;;5.20;;
75814;SDS011;64451;45.574;14.224;2023-05-07T06:45:42;6.85;;;4.50;;
75814;SDS011;64451;45.574;14.224;2023-05-07T06:52:04;11.07;;;4.63;;
75814;SDS011;64451;45.574;14.224;2023-05-07T06:56:26;13.70;;;5.30;;
75814;SDS011;64451;45.574;14.224;2023-05-07T07:03:00;7.63;;;4.28;;
75814;SDS011;64451;45.574;14.224;2023-05-07T07:05:06;6.32;;;3.90;;
75814;SDS011;64451;45.574;14.224;2023-05-07T07:07:13;10.32;;;5.63;;
75814;SDS011;64451;45.574;14.224;2023-05-07T07:09:32;8.75;;;4.95;;
75814;SDS011;64451;45.574;14.224;2023-05-07T07:11:32;8.88;;;3.83;;
75814;SDS011;64451;45.574;14.224;2023-05-07T07:13:41;9.57;;;5.78;;
75814;SDS011;64451;45.574;14.224;2023-05-07T07:15:46;14.95;;;8.13;;
75814;SDS011;64451;45.574;14.224;2023-05-07T07:17:46;13.25;;;8.00;;
75814;SDS011;64451;45.574;14.224;2023-05-07T07:20:05;15.45;;;8.25;;
75814;SDS011;64451;45.574;14.224;2023-05-07T07:22:27;13.48;;;8.07;;
75814;SDS011;64451;45.574;14.224;2023-05-07T07:31:30;16.98;;;9.55;;
75814;SDS011;64451;45.574;14.224;2023-05-07T07:33:43;14.10;;;7.43;;
75814;SDS011;64451;45.574;14.224;2023-05-07T07:35:59;18.10;;;9.70;;
75814;SDS011;64451;45.574;14.224;2023-05-07T07:38:05;9.88;;;5.50;;
75814;SDS011;64451;45.574;14.224;2023-05-07T07:40:11;9.63;;;4.78;;
75814;SDS011;64451;45.574;14.224;2023-05-07T07:42:24;11.10;;;6.47;;
75814;SDS011;64451;45.574;14.224;2023-05-07T07:46:27;9.60;;;5.78;;
75814;SDS011;64451;45.574;14.224;2023-05-07T07:48:39;8.07;;;4.47;;
75814;SDS011;64451;45.574;14.224;2023-05-07T07:56:47;3.67;;;2.37;;
75814;SDS011;64451;45.574;14.224;2023-05-07T08:04:58;3.97;;;2.20;;
75814;SDS011;64451;45.574;14.224;2023-05-07T08:15:17;10.48;;;5.00;;
75814;SDS011;64451;45.574;14.224;2023-05-07T08:17:23;6.50;;;4.22;;
75814;SDS011;64451;45.574;14.224;2023-05-07T08:22:03;5.00;;;2.38;;
75814;SDS011;64451;45.574;14.224;2023-05-07T08:26:31;4.40;;;2.30;;
75814;SDS011;64451;45.574;14.224;2023-05-07T08:28:43;3.95;;;2.50;;
75814;SDS011;64451;45.574;14.224;2023-05-07T08:34:59;3.10;;;2.20;;
75814;SDS011;64451;45.574;14.224;2023-05-07T08:41:36;3.58;;;2.30;;
75814;SDS011;64451;45.574;14.224;2023-05-07T08:43:37;2.50;;;2.00;;
75814;SDS011;64451;45.574;14.224;2023-05-07T08:50:41;3.80;;;1.90;;
75814;SDS011;64451;45.574;14.224;2023-05-07T08:57:07;1.40;;;1.30;;
75814;SDS011;64451;45.574;14.224;2023-05-07T08:59:10;1.65;;;1.30;;
75814;SDS011;64451;45.574;14.224;2023-05-07T09:03:32;2.15;;;1.05;;
75814;SDS011;64451;45.574;14.224;2023-05-07T09:05:47;1.92;;;1.50;;
75814;SDS011;64451;45.574;14.224;2023-05-07T09:08:02;1.67;;;1.23;;
75814;SDS011;64451;45.574;14.224;2023-05-07T09:10:19;2.13;;;1.27;;
75814;SDS011;64451;45.574;14.224;2023-05-07T09:12:21;3.05;;;1.40;;
75814;SDS011;64451;45.574;14.224;2023-05-07T09:14:36;2.35;;;1.40;;
75814;SDS011;64451;45.574;14.224;2023-05-07T09:16:51;1.20;;;1.10;;
75814;SDS011;64451;45.574;14.224;2023-05-07T09:19:07;1.13;;;1.02;;
75814;SDS011;64451;45.574;14.224;2023-05-07T09:21:09;4.80;;;1.52;;
75814;SDS011;64451;45.574;14.224;2023-05-07T09:23:19;2.73;;;1.70;;
75814;SDS011;64451;45.574;14.224;2023-05-07T09:27:45;8.23;;;3.40;;
75814;SDS011;64451;45.574;14.224;2023-05-07T09:29:51;3.05;;;1.80;;
75814;SDS011;64451;45.574;14.224;2023-05-07T09:31:58;3.42;;;1.80;;
75814;SDS011;64451;45.574;14.224;2023-05-07T09:34:01;2.28;;;1.38;;
75814;SDS011;64451;45.574;14.224;2023-05-07T09:36:08;2.28;;;1.50;;
75814;SDS011;64451;45.574;14.224;2023-05-07T09:38:21;2.15;;;1.45;;
75814;SDS011;64451;45.574;14.224;2023-05-07T09:40:23;2.00;;;1.58;;
75814;SDS011;64451;45.574;14.224;2023-05-07T09:42:30;5.18;;;2.63;;
75814;SDS011;64451;45.574;14.224;2023-05-07T09:44:43;1.92;;;1.50;;
75814;SDS011;64451;45.574;14.224;2023-05-07T09:46:56;3.20;;;1.75;;
75814;SDS011;64451;45.574;14.224;2023-05-07T09:54:04;2.20;;;1.70;;
75814;SDS011;64451;45.574;14.224;2023-05-07T09:56:17;4.57;;;1.95;;
75814;SDS011;64451;45.574;14.224;2023-05-07T09:58:27;2.55;;;1.30;;
75814;SDS011;64451;45.574;14.224;2023-05-07T10:00:32;2.15;;;1.50;;
75814;SDS011;64451;45.574;14.224;2023-05-07T10:02:32;2.30;;;1.75;;
75814;SDS011;64451;45.574;14.224;2023-05-07T10:07:05;2.45;;;1.63;;
75814;SDS011;64451;45.574;14.224;2023-05-07T10:09:07;1.98;;;1.55;;
75814;SDS011;64451;45.574;14.224;2023-05-07T10:11:09;1.38;;;1.20;;
75814;SDS011;64451;45.574;14.224;2023-05-07T10:13:19;2.08;;;1.50;;
75814;SDS011;64451;45.574;14.224;2023-05-07T10:15:28;2.70;;;1.63;;
75814;SDS011;64451;45.574;14.224;2023-05-07T10:17:33;2.00;;;1.52;;
75814;SDS011;64451;45.574;14.224;2023-05-07T10:19:44;2.20;;;1.58;;
75814;SDS011;64451;45.574;14.224;2023-05-07T10:21:54;2.63;;;1.48;;
75814;SDS011;64451;45.574;14.224;2023-05-07T10:24:09;2.85;;;1.80;;
75814;SDS011;64451;45.574;14.224;2023-05-07T10:26:23;2.47;;;1.88;;
75814;SDS011;64451;45.574;14.224;2023-05-07T10:28:36;2.33;;;1.50;;
75814;SDS011;64451;45.574;14.224;2023-05-07T10:35:52;1.52;;;1.40;;
75814;SDS011;64451;45.574;14.224;2023-05-07T10:38:22;1.63;;;1.30;;
75814;SDS011;64451;45.574;14.224;2023-05-07T10:40:22;3.05;;;1.85;;
75814;SDS011;64451;45.574;14.224;2023-05-07T10:42:23;4.22;;;1.70;;
75814;SDS011;64451;45.574;14.224;2023-05-07T10:44:39;2.78;;;1.77;;
75814;SDS011;64451;45.574;14.224;2023-05-07T10:47:03;4.45;;;2.15;;
75814;SDS011;64451;45.574;14.224;2023-05-07T10:49:13;2.22;;;1.60;;
75814;SDS011;64451;45.574;14.224;2023-05-07T10:51:21;2.05;;;1.63;;
75814;SDS011;64451;45.574;14.224;2023-05-07T10:53:25;2.65;;;1.52;;
75814;SDS011;64451;45.574;14.224;2023-05-07T10:55:27;2.17;;;1.50;;
75814;SDS011;64451;45.574;14.224;2023-05-07T10:59:31;4.32;;;1.95;;
75814;SDS011;64451;45.574;14.224;2023-05-07T11:04:29;3.35;;;1.80;;
75814;SDS011;64451;45.574;14.224;2023-05-07T11:06:31;3.53;;;2.83;;
75814;SDS011;64451;45.574;14.224;2023-05-07T11:10:57;2.60;;;1.75;;
75814;SDS011;64451;45.574;14.224;2023-05-07T11:12:58;3.28;;;1.95;;
75814;SDS011;64451;45.574;14.224;2023-05-07T11:15:11;3.28;;;2.20;;
75814;SDS011;64451;45.574;14.224;2023-05-07T11:17:22;2.88;;;2.00;;
75814;SDS011;64451;45.574;14.224;2023-05-07T11:21:41;6.82;;;1.88;;
75814;SDS011;64451;45.574;14.224;2023-05-07T11:25:51;3.13;;;2.05;;
75814;SDS011;64451;45.574;14.224;2023-05-07T11:28:19;3.83;;;2.10;;
75814;SDS011;64451;45.574;14.224;2023-05-07T11:30:22;4.78;;;2.10;;
75814;SDS011;64451;45.574;14.224;2023-05-07T11:36:53;2.53;;;1.80;;
75814;SDS011;64451;45.574;14.224;2023-05-07T11:44:03;3.20;;;1.83;;
75814;SDS011;64451;45.574;14.224;2023-05-07T11:46:10;2.67;;;1.85;;
75814;SDS011;64451;45.574;14.224;2023-05-07T11:48:43;3.65;;;2.00;;
75814;SDS011;64451;45.574;14.224;2023-05-07T11:53:09;2.78;;;1.92;;
75814;SDS011;64451;45.574;14.224;2023-05-07T11:55:25;3.03;;;1.88;;
75814;SDS011;64451;45.574;14.224;2023-05-07T11:57:33;2.92;;;1.80;;
75814;SDS011;64451;45.574;14.224;2023-05-07T12:06:06;3.27;;;1.97;;
75814;SDS011;64451;45.574;14.224;2023-05-07T12:08:19;2.70;;;1.88;;
75814;SDS011;64451;45.574;14.224;2023-05-07T12:12:58;3.25;;;2.00;;
75814;SDS011;64451;45.574;14.224;2023-05-07T12:17:14;2.88;;;1.77;;
75814;SDS011;64451;45.574;14.224;2023-05-07T12:19:18;2.83;;;1.77;;
75814;SDS011;64451;45.574;14.224;2023-05-07T12:21:21;2.90;;;2.05;;
75814;SDS011;64451;45.574;14.224;2023-05-07T12:23:35;3.03;;;2.00;;
75814;SDS011;64451;45.574;14.224;2023-05-07T12:25:52;2.97;;;1.65;;
75814;SDS011;64451;45.574;14.224;2023-05-07T12:27:52;2.78;;;1.90;;
75814;SDS011;64451;45.574;14.224;2023-05-07T12:30:09;3.75;;;2.53;;
75814;SDS011;64451;45.574;14.224;2023-05-07T12:32:25;3.25;;;1.90;;
75814;SDS011;64451;45.574;14.224;2023-05-07T12:34:35;3.20;;;2.20;;
75814;SDS011;64451;45.574;14.224;2023-05-07T12:41:06;3.70;;;1.88;;
75814;SDS011;64451;45.574;14.224;2023-05-07T12:45:54;4.00;;;2.10;;
75814;SDS011;64451;45.574;14.224;2023-05-07T12:47:56;2.47;;;1.80;;
75814;SDS011;64451;45.574;14.224;2023-05-07T12:50:09;2.53;;;1.80;;
75814;SDS011;64451;45.574;14.224;2023-05-07T12:52:22;4.30;;;2.30;;
75814;SDS011;64451;45.574;14.224;2023-05-07T12:54:36;2.13;;;1.70;;
75814;SDS011;64451;45.574;14.224;2023-05-07T12:57:11;2.55;;;1.80;;
75814;SDS011;64451;45.574;14.224;2023-05-07T13:01:28;3.40;;;2.05;;
75814;SDS011;64451;45.574;14.224;2023-05-07T13:03:40;2.97;;;2.00;;
75814;SDS011;64451;45.574;14.224;2023-05-07T13:05:47;3.55;;;1.90;;
75814;SDS011;64451;45.574;14.224;2023-05-07T13:08:05;2.50;;;2.00;;
75814;SDS011;64451;45.574;14.224;2023-05-07T13:10:12;3.00;;;1.92;;
75814;SDS011;64451;45.574;14.224;2023-05-07T13:16:35;3.45;;;2.28;;
75814;SDS011;64451;45.574;14.224;2023-05-07T13:18:51;3.28;;;2.15;;
75814;SDS011;64451;45.574;14.224;2023-05-07T13:21:01;2.78;;;1.90;;
75814;SDS011;64451;45.574;14.224;2023-05-07T13:25:19;4.28;;;2.30;;
75814;SDS011;64451;45.574;14.224;2023-05-07T13:27:22;3.95;;;2.33;;
75814;SDS011;64451;45.574;14.224;2023-05-07T13:29:38;2.70;;;1.95;;
75814;SDS011;64451;45.574;14.224;2023-05-07T13:31:54;3.60;;;2.33;;
75814;SDS011;64451;45.574;14.224;2023-05-07T13:33:55;3.70;;;2.17;;
75814;SDS011;64451;45.574;14.224;2023-05-07T13:35:56;3.47;;;2.33;;
75814;SDS011;64451;45.574;14.224;2023-05-07T13:38:02;4.03;;;2.20;;
75814;SDS011;64451;45.574;14.224;2023-05-07T13:40:06;2.35;;;1.77;;
75814;SDS011;64451;45.574;14.224;2023-05-07T13:44:16;3.58;;;2.40;;
75814;SDS011;64451;45.574;14.224;2023-05-07T13:46:46;2.30;;;1.90;;
75814;SDS011;64451;45.574;14.224;2023-05-07T13:48:51;2.65;;;2.00;;
75814;SDS011;64451;45.574;14.224;2023-05-07T13:50:52;2.65;;;1.80;;
75814;SDS011;64451;45.574;14.224;2023-05-07T13:52:55;3.30;;;2.22;;
75814;SDS011;64451;45.574;14.224;2023-05-07T13:57:13;3.38;;;1.98;;
75814;SDS011;64451;45.574;14.224;2023-05-07T13:59:29;3.22;;;2.28;;
75814;SDS011;64451;45.574;14.224;2023-05-07T14:03:44;2.35;;;1.65;;
75814;SDS011;64451;45.574;14.224;2023-05-07T14:05:44;2.60;;;1.80;;
75814;SDS011;64451;45.574;14.224;2023-05-07T14:08:00;2.50;;;1.80;;
75814;SDS011;64451;45.574;14.224;2023-05-07T14:12:04;3.00;;;1.65;;
75814;SDS011;64451;45.574;14.224;2023-05-07T14:14:05;2.42;;;1.67;;
75814;SDS011;64451;45.574;14.224;2023-05-07T14:18:33;3.25;;;2.10;;
75814;SDS011;64451;45.574;14.224;2023-05-07T14:20:46;2.42;;;1.77;;
75814;SDS011;64451;45.574;14.224;2023-05-07T14:23:05;2.17;;;1.60;;
75814;SDS011;64451;45.574;14.224;2023-05-07T14:28:20;3.17;;;2.33;;
75814;SDS011;64451;45.574;14.224;2023-05-07T14:32:24;5.55;;;1.67;;
75814;SDS011;64451;45.574;14.224;2023-05-07T14:34:27;2.83;;;1.60;;
75814;SDS011;64451;45.574;14.224;2023-05-07T14:36:28;1.75;;;1.48;;
75814;SDS011;64451;45.574;14.224;2023-05-07T14:38:39;3.53;;;2.35;;
75814;SDS011;64451;45.574;14.224;2023-05-07T14:40:54;3.15;;;1.98;;
75814;SDS011;64451;45.574;14.224;2023-05-07T14:45:02;3.50;;;1.80;;
75814;SDS011;64451;45.574;14.224;2023-05-07T14:47:08;3.40;;;1.70;;
75814;SDS011;64451;45.574;14.224;2023-05-07T14:49:15;4.40;;;1.60;;
75814;SDS011;64451;45.574;14.224;2023-05-07T14:51:34;3.45;;;2.17;;
75814;SDS011;64451;45.574;14.224;2023-05-07T14:53:52;5.43;;;2.13;;
75814;SDS011;64451;45.574;14.224;2023-05-07T14:58:18;4.68;;;1.85;;
75814;SDS011;64451;45.574;14.224;2023-05-07T15:00:24;3.42;;;1.52;;
75814;SDS011;64451;45.574;14.224;2023-05-07T15:02:24;2.38;;;1.90;;
75814;SDS011;64451;45.574;14.224;2023-05-07T15:04:25;2.95;;;1.67;;
75814;SDS011;64451;45.574;14.224;2023-05-07T15:06:34;2.00;;;1.58;;
75814;SDS011;64451;45.574;14.224;2023-05-07T15:10:46;2.63;;;1.80;;
75814;SDS011;64451;45.574;14.224;2023-05-07T15:15:32;3.83;;;2.33;;
75814;SDS011;64451;45.574;14.224;2023-05-07T15:17:45;4.07;;;2.22;;
75814;SDS011;64451;45.574;14.224;2023-05-07T15:19:54;3.25;;;2.08;;
75814;SDS011;64451;45.574;14.224;2023-05-07T15:21:58;5.20;;;2.33;;
75814;SDS011;64451;45.574;14.224;2023-05-07T15:24:20;3.33;;;2.00;;
75814;SDS011;64451;45.574;14.224;2023-05-07T15:26:24;3.65;;;2.20;;
75814;SDS011;64451;45.574;14.224;2023-05-07T15:28:36;3.55;;;2.20;;
75814;SDS011;64451;45.574;14.224;2023-05-07T15:30:58;2.88;;;2.10;;
75814;SDS011;64451;45.574;14.224;2023-05-07T15:33:00;3.78;;;2.20;;
75814;SDS011;64451;45.574;14.224;2023-05-07T15:35:02;2.95;;;2.10;;
75814;SDS011;64451;45.574;14.224;2023-05-07T15:37:15;3.47;;;2.53;;
75814;SDS011;64451;45.574;14.224;2023-05-07T15:39:28;3.47;;;2.10;;
75814;SDS011;64451;45.574;14.224;2023-05-07T15:41:37;4.35;;;2.42;;
75814;SDS011;64451;45.574;14.224;2023-05-07T15:44:11;3.75;;;2.45;;
75814;SDS011;64451;45.574;14.224;2023-05-07T15:46:20;4.03;;;2.25;;
75814;SDS011;64451;45.574;14.224;2023-05-07T15:48:42;3.20;;;2.17;;
75814;SDS011;64451;45.574;14.224;2023-05-07T15:50:58;3.22;;;2.28;;
75814;SDS011;64451;45.574;14.224;2023-05-07T15:57:03;4.17;;;2.40;;
75814;SDS011;64451;45.574;14.224;2023-05-07T15:59:11;2.85;;;1.73;;
75814;SDS011;64451;45.574;14.224;2023-05-07T16:01:12;2.60;;;1.95;;
75814;SDS011;64451;45.574;14.224;2023-05-07T16:03:21;3.47;;;2.15;;
75814;SDS011;64451;45.574;14.224;2023-05-07T16:07:33;2.45;;;1.80;;
75814;SDS011;64451;45.574;14.224;2023-05-07T16:09:49;2.22;;;1.58;;
75814;SDS011;64451;45.574;14.224;2023-05-07T16:12:01;4.65;;;2.10;;
75814;SDS011;64451;45.574;14.224;2023-05-07T16:14:02;3.17;;;1.90;;
75814;SDS011;64451;45.574;14.224;2023-05-07T16:16:12;2.42;;;1.90;;
75814;SDS011;64451;45.574;14.224;2023-05-07T16:18:27;5.28;;;1.92;;
75814;SDS011;64451;45.574;14.224;2023-05-07T16:22:50;3.40;;;2.10;;
75814;SDS011;64451;45.574;14.224;2023-05-07T16:24:50;3.33;;;2.30;;
75814;SDS011;64451;45.574;14.224;2023-05-07T16:29:13;3.90;;;2.17;;
75814;SDS011;64451;45.574;14.224;2023-05-07T16:31:17;4.95;;;2.20;;
75814;SDS011;64451;45.574;14.224;2023-05-07T16:33:24;3.20;;;1.92;;
75814;SDS011;64451;45.574;14.224;2023-05-07T16:35:27;4.07;;;2.33;;
75814;SDS011;64451;45.574;14.224;2023-05-07T16:37:34;4.70;;;1.92;;
75814;SDS011;64451;45.574;14.224;2023-05-07T16:39:34;4.75;;;2.40;;
75814;SDS011;64451;45.574;14.224;2023-05-07T16:41:44;5.20;;;2.08;;
75814;SDS011;64451;45.574;14.224;2023-05-07T16:43:56;5.15;;;2.33;;
75814;SDS011;64451;45.574;14.224;2023-05-07T16:46:00;4.60;;;1.95;;
75814;SDS011;64451;45.574;14.224;2023-05-07T16:48:03;3.60;;;2.10;;
75814;SDS011;64451;45.574;14.224;2023-05-07T16:52:11;6.27;;;2.00;;
75814;SDS011;64451;45.574;14.224;2023-05-07T16:54:11;2.67;;;1.90;;
75814;SDS011;64451;45.574;14.224;2023-05-07T16:56:27;3.55;;;2.13;;
75814;SDS011;64451;45.574;14.224;2023-05-07T16:58:30;3.80;;;2.35;;
75814;SDS011;64451;45.574;14.224;2023-05-07T17:00:38;2.95;;;1.80;;